createdAt,value
2023-01-24T00:04:32.667Z,3.77
2023-01-24T00:09:34.591Z,3.77
2023-01-24T00:14:36.565Z,3.80
2023-01-24T00:19:38.515Z,3.79
2023-01-24T00:24:40.529Z,3.78
2023-01-24T00:29:42.561Z,3.80
2023-01-24T00:34:44.530Z,3.82
2023-01-24T00:39:46.518Z,3.82
2023-01-24T00:44:48.456Z,3.88
2023-01-24T00:49:50.418Z,3.84
2023-01-24T00:54:52.635Z,3.85
2023-01-24T00:59:54.617Z,3.83
2023-01-24T01:04:56.566Z,3.90
2023-01-24T01:09:58.631Z,3.89
2023-01-24T01:15:00.559Z,3.86
2023-01-24T01:20:03.408Z,3.87
2023-01-24T01:25:05.686Z,3.89
2023-01-24T01:30:08.418Z,3.90
2023-01-24T01:35:10.658Z,3.93
2023-01-24T01:40:12.811Z,3.93
2023-01-24T01:45:36.466Z,3.91
2023-01-24T01:50:41.881Z,3.93
2023-01-24T01:55:49.491Z,3.94
2023-01-24T02:00:51.865Z,3.93
2023-01-24T02:05:55.105Z,3.94
2023-01-24T02:11:18.894Z,3.95
2023-01-24T02:16:20.835Z,3.95
2023-01-24T02:21:23.003Z,3.97
2023-01-24T02:26:28.966Z,3.93
2023-01-24T02:31:31.041Z,3.94
2023-01-24T02:36:42.253Z,3.94
2023-01-24T02:41:56.120Z,3.92
2023-01-24T02:46:58.133Z,3.92
2023-01-24T02:52:19.061Z,3.93
2023-01-24T02:57:40.418Z,3.94
2023-01-24T03:02:42.370Z,3.93
2023-01-24T03:07:45.569Z,3.93
2023-01-24T03:13:10.240Z,3.91
2023-01-24T03:18:31.266Z,3.90
2023-01-24T03:23:52.531Z,3.92
2023-01-24T03:29:12.982Z,3.91
2023-01-24T03:34:31.654Z,3.92
2023-01-24T03:39:52.779Z,3.89
2023-01-24T03:44:54.906Z,3.88
2023-01-24T03:50:16.155Z,3.88
2023-01-24T03:55:18.215Z,3.90
2023-01-24T04:00:20.656Z,3.91
2023-01-24T04:05:32.962Z,3.88
2023-01-24T04:10:35.594Z,3.86
2023-01-24T04:15:39.173Z,3.84
2023-01-24T04:21:04.498Z,3.81
2023-01-24T04:26:08.737Z,3.80
2023-01-24T04:31:10.746Z,3.72
2023-01-24T04:36:31.334Z,3.70
2023-01-24T04:41:34.372Z,3.69
2023-01-24T04:46:37.204Z,3.67
2023-01-24T04:51:43.008Z,3.65
2023-01-24T04:56:49.070Z,3.62
2023-01-24T05:01:51.939Z,3.62
2023-01-24T05:07:06.423Z,3.60
2023-01-24T05:12:10.114Z,3.61
2023-01-24T05:17:12.005Z,3.59
2023-01-24T05:22:13.991Z,3.59
2023-01-24T05:27:18.229Z,3.59
2023-01-24T05:32:29.048Z,3.59
2023-01-24T05:37:31.060Z,3.62
2023-01-24T05:42:33.844Z,3.63
2023-01-24T05:47:35.959Z,3.63
2023-01-24T05:52:39.931Z,3.61
2023-01-24T05:57:41.923Z,3.59
2023-01-24T06:02:53.163Z,3.61
2023-01-24T06:07:56.743Z,3.60
2023-01-24T06:13:00.885Z,3.62
2023-01-24T06:18:03.140Z,3.63
2023-01-24T06:23:07.835Z,3.63
2023-01-24T06:28:16.485Z,3.63
2023-01-24T06:33:26.643Z,3.63
2023-01-24T06:38:28.787Z,3.64
2023-01-24T06:43:31.137Z,3.67
2023-01-24T06:48:33.067Z,3.67
2023-01-24T06:53:35.020Z,3.67
2023-01-24T06:58:37.016Z,3.69
2023-01-24T07:03:39.012Z,3.69
2023-01-24T07:08:41.034Z,3.71
2023-01-24T07:13:43.041Z,3.67
2023-01-24T07:18:45.317Z,3.69
2023-01-24T07:23:49.295Z,3.75
2023-01-24T07:28:51.222Z,3.80
2023-01-24T07:33:54.374Z,3.75
2023-01-24T07:38:57.745Z,3.77
2023-01-24T07:44:00.081Z,3.79
2023-01-24T07:49:02.917Z,3.79
2023-01-24T07:54:04.935Z,3.82
2023-01-24T07:59:07.455Z,3.83
2023-01-24T08:04:10.268Z,3.85
2023-01-24T08:09:12.299Z,3.82
2023-01-24T08:14:14.269Z,3.80
2023-01-24T08:19:29.687Z,3.80
2023-01-24T08:24:38.224Z,3.79
2023-01-24T08:29:40.180Z,3.79
2023-01-24T08:34:42.191Z,3.81
2023-01-24T08:39:44.140Z,3.84
2023-01-24T08:44:46.114Z,3.80
2023-01-24T08:49:48.016Z,3.80
2023-01-24T08:54:49.970Z,3.78
2023-01-24T08:59:52.280Z,3.79
2023-01-24T09:04:54.210Z,3.82
2023-01-24T09:09:56.246Z,3.86
2023-01-24T09:14:58.434Z,3.87
2023-01-24T09:20:00.410Z,3.89
2023-01-24T09:25:02.457Z,3.92
2023-01-24T09:30:08.438Z,3.93
2023-01-24T09:35:10.384Z,3.94
2023-01-24T09:40:21.671Z,3.97
2023-01-24T09:45:30.971Z,4.00
2023-01-24T09:51:00.909Z,4.00
2023-01-24T09:56:05.411Z,4.03
2023-01-24T10:01:13.225Z,4.09
2023-01-24T10:06:20.802Z,4.11
2023-01-24T10:11:30.262Z,4.12
2023-01-24T10:16:43.401Z,4.10
2023-01-24T10:21:57.144Z,4.10
2023-01-24T10:27:01.910Z,4.05
2023-01-24T10:32:16.042Z,4.05
2023-01-24T10:37:24.667Z,4.06
2023-01-24T10:42:31.502Z,4.10
2023-01-24T10:47:51.939Z,4.16
2023-01-24T10:52:53.805Z,4.11
2023-01-24T10:57:56.169Z,4.11
2023-01-24T11:03:00.957Z,4.10
2023-01-24T11:08:05.431Z,4.10
2023-01-24T11:13:27.519Z,4.11
2023-01-24T11:18:30.276Z,4.11
2023-01-24T11:23:32.239Z,4.12
2023-01-24T11:28:36.873Z,4.15
2023-01-24T11:33:58.412Z,4.14
2023-01-24T11:39:17.989Z,4.12
2023-01-24T11:44:41.667Z,4.12
2023-01-24T11:50:21.738Z,4.14
2023-01-24T11:56:14.240Z,4.15
2023-01-24T12:01:47.863Z,4.18
2023-01-24T12:07:00.604Z,4.20
2023-01-24T12:12:15.330Z,4.19
2023-01-24T12:17:40.198Z,4.21
2023-01-24T12:22:43.100Z,4.27
2023-01-24T12:27:46.976Z,4.35
2023-01-24T12:32:58.325Z,4.42
2023-01-24T12:38:39.672Z,4.42
2023-01-24T12:44:26.797Z,4.40
2023-01-24T12:49:45.349Z,4.40
2023-01-24T12:54:54.699Z,4.38
2023-01-24T12:59:56.626Z,4.40
2023-01-24T13:05:22.717Z,4.38
2023-01-24T13:10:39.780Z,4.35
2023-01-24T13:16:07.856Z,4.37
2023-01-24T13:21:44.509Z,4.41
2023-01-24T13:27:11.914Z,4.44
2023-01-24T13:32:19.619Z,4.45
2023-01-24T13:37:26.605Z,4.47
2023-01-24T13:42:40.886Z,4.47
2023-01-24T13:47:42.843Z,4.44
2023-01-24T13:52:55.494Z,4.45
2023-01-24T13:58:09.685Z,4.45
2023-01-24T14:03:34.453Z,4.51
2023-01-24T14:08:39.878Z,4.59
2023-01-24T14:13:52.924Z,4.58
2023-01-24T14:19:08.664Z,4.57
2023-01-24T14:24:24.625Z,4.59
2023-01-24T14:29:38.476Z,4.62
2023-01-24T14:34:55.009Z,4.61
2023-01-24T14:40:11.823Z,4.63
2023-01-24T14:45:16.511Z,4.63
2023-01-24T14:50:25.978Z,4.59
2023-01-24T14:55:28.407Z,4.57
2023-01-24T15:00:30.342Z,4.57
2023-01-24T15:05:38.213Z,4.58
2023-01-24T15:10:42.046Z,4.62
2023-01-24T15:15:44.189Z,4.62
2023-01-24T15:20:49.508Z,4.60
2023-01-24T15:25:51.407Z,4.58
2023-01-24T15:30:55.355Z,4.56
2023-01-24T15:35:57.353Z,4.52
2023-01-24T15:41:13.538Z,4.47
2023-01-24T15:46:57.755Z,4.44
2023-01-24T15:52:20.226Z,4.46
2023-01-24T15:57:22.017Z,4.50
2023-01-24T16:02:24.053Z,4.54
2023-01-24T16:07:25.981Z,4.55
2023-01-24T16:12:35.289Z,4.58
2023-01-24T16:17:37.405Z,4.62
2023-01-24T16:22:39.730Z,4.63
2023-01-24T16:27:42.360Z,4.63
2023-01-24T16:32:44.264Z,4.62
2023-01-24T16:37:46.468Z,4.63
2023-01-24T16:42:49.266Z,4.63
2023-01-24T16:47:51.248Z,4.61
2023-01-24T16:52:53.916Z,4.64
2023-01-24T16:57:55.956Z,4.62
2023-01-24T17:03:00.052Z,4.58
2023-01-24T17:08:01.893Z,4.57
2023-01-24T17:13:06.225Z,4.60
2023-01-24T17:18:08.131Z,4.63
2023-01-24T17:23:09.960Z,4.66
2023-01-24T17:28:11.844Z,4.65
2023-01-24T17:33:13.687Z,4.65
2023-01-24T17:38:16.614Z,4.63
2023-01-24T17:43:18.646Z,4.61
2023-01-24T17:48:21.607Z,4.61
2023-01-24T17:53:25.084Z,4.57
2023-01-24T17:58:26.920Z,4.56
2023-01-24T18:03:28.786Z,4.57
2023-01-24T18:08:30.989Z,4.57
2023-01-24T18:13:32.821Z,4.59
2023-01-24T18:18:36.665Z,4.59
2023-01-24T18:23:39.064Z,4.60
2023-01-24T18:28:40.883Z,4.60
2023-01-24T18:33:43.003Z,4.63
2023-01-24T18:38:46.331Z,4.64
2023-01-24T18:43:48.207Z,4.63
2023-01-24T18:48:50.096Z,4.64
2023-01-24T18:53:53.971Z,4.64
2023-01-24T18:58:56.093Z,4.64
2023-01-24T19:03:57.912Z,4.62
2023-01-24T19:09:04.320Z,4.63
2023-01-24T19:14:07.848Z,4.66
2023-01-24T19:19:18.945Z,4.71
2023-01-24T19:24:20.979Z,4.73
2023-01-24T19:29:22.887Z,4.68
2023-01-24T19:34:24.856Z,4.69
2023-01-24T19:39:26.783Z,4.68
2023-01-24T19:44:28.727Z,4.71
2023-01-24T19:49:30.583Z,4.73
2023-01-24T19:54:32.479Z,4.74
2023-01-24T19:59:34.329Z,4.73
2023-01-24T20:04:50.165Z,4.73
2023-01-24T20:09:53.669Z,4.74
2023-01-24T20:14:55.532Z,4.73
2023-01-24T20:20:00.805Z,4.74
2023-01-24T20:25:13.759Z,4.75
2023-01-24T20:30:21.407Z,4.78
2023-01-24T20:35:23.290Z,4.81
2023-01-24T20:40:25.200Z,4.80
2023-01-24T20:45:29.188Z,4.80
2023-01-24T20:50:31.141Z,4.79
2023-01-24T20:55:33.052Z,4.78
2023-01-24T21:00:34.914Z,4.76
2023-01-24T21:05:36.895Z,4.74
2023-01-24T21:10:38.796Z,4.73
2023-01-24T21:15:40.692Z,4.74
2023-01-24T21:20:42.580Z,4.77
2023-01-24T21:25:45.044Z,4.83
2023-01-24T21:30:47.256Z,4.91
2023-01-24T21:35:49.137Z,4.92
2023-01-24T21:41:09.796Z,4.91
2023-01-24T21:46:11.918Z,4.87
2023-01-24T21:51:13.976Z,4.81
2023-01-24T21:56:34.620Z,4.86
2023-01-24T22:01:36.892Z,4.85
2023-01-24T22:06:38.858Z,4.87
2023-01-24T22:11:40.959Z,4.80
2023-01-24T22:16:43.533Z,4.76
2023-01-24T22:21:48.515Z,4.77
2023-01-24T22:27:01.514Z,4.79
2023-01-24T22:32:04.166Z,4.75
2023-01-24T22:37:33.631Z,4.72
2023-01-24T22:42:35.486Z,4.71
2023-01-24T22:47:37.383Z,4.71
2023-01-24T22:52:39.522Z,4.70
2023-01-24T22:57:41.474Z,4.65
2023-01-24T23:02:43.424Z,4.60
2023-01-24T23:07:45.301Z,4.57
2023-01-24T23:13:05.736Z,4.62
2023-01-24T23:18:15.356Z,4.76
2023-01-24T23:23:17.259Z,4.76
2023-01-24T23:28:19.085Z,4.75
2023-01-24T23:33:31.798Z,4.73
2023-01-24T23:38:33.649Z,4.77
2023-01-24T23:43:36.025Z,4.80
2023-01-24T23:48:38.863Z,4.78
2023-01-24T23:53:40.709Z,4.77
2023-01-24T23:58:42.514Z,4.74
